Airfield :
LOGIN :

Register | Disclaimer

   EN    FR    IT 

 










Legend :    VFR   Marginal VFR   IFR   Intensive IFR   Very Intensive IFR
Visi :
Ceiling :
>= 8 km
>= 3000ft
5 to 8 km
1000 to 3000 ft
1500m to 5 km
500 to 1000 ft
800 to 1500m
200 to 500 ft
< 800m
< 200 ft
Symbols :   Thunderstorms  Fog  Heavy snow  Heavy precipitations  Wind > 20 kt
SIGMETs :     Misc.  Thunderstorms  Icing  Turbulence  Mountain Waves  Volcanic Ashes






- Airport Elevation : 39 ft
- IATA code : TRS


LIPQ - Friuli Venezia Giulia Apt. Trieste

CURRENT METAR :
  • 282150Z AUTO 02004KT 9999 OVC061/// 07/02 Q1017

EXPIRED METARs :
  • 282120Z AUTO 01004KT 9999 OVC063/// 07/02 Q1017
  • 282050Z AUTO 01004KT 9999 OVC057/// 07/02 Q1017
  • 282020Z AUTO 01004KT 9999 OVC069/// 07/02 Q1017
  • 281950Z AUTO 34003KT 310V010 9999 OVC077/// 07/02 Q1017
  • 281920Z AUTO 03003KT 9999 OVC084/// 07/02 Q1017

TAF TAF LIPQ
Valid from the 28 at 18:00 until the 29 at 18:00 UTC


281700Z 2818/2918 03006KT 9999 BKN100



MET'MAP, your aeronautical weather chart ! - Copyright ORBIFLY December 2007 - Disclaimer

ORBIFLY MET'MAP TEAM :

Programming & Development : Alexandra Zaïnal
Original concept : Baudouin d'Aumeries
Technical & hardware support : Manuel Goepfert
Assistance : Marc-Olivier Méhu




SOURCES & CREDITS :

   NOAA